Time;durP1;ratioP1;P1;durP2;ratioP2;P2;SDS_P1;SDS_P2;PMS_P1;PMS_P2;Temp;Humidity;BMP_temperature;BMP_pressure;BME280_temperature;BME280_humidity;BME280_pressure;Samples;Min_cycle;Max_cycle;Signal;HPM_P1;HPM_P2
2022/06/17 00:02:14;;;;;;;5.65;2.55;;;21.40;84.80;;;;;;5081315;28;20049;-59
2022/06/17 00:04:42;;;;;;;7.20;2.65;;;21.40;85.20;;;;;;5073653;28;20529;-59
2022/06/17 00:07:12;;;;;;;6.95;2.67;;;21.40;85.50;;;;;;5081812;28;20040;-59
2022/06/17 00:09:39;;;;;;;11.35;3.10;;;21.30;86.10;;;;;;5073391;28;20048;-60
2022/06/17 00:12:07;;;;;;;10.80;3.05;;;21.30;86.00;;;;;;5081600;28;20373;-58
2022/06/17 00:15:11;;;;;;;6.30;2.40;;;21.20;87.10;;;;;;5073896;28;20048;-58
2022/06/17 00:17:22;;;;;;;6.97;2.85;;;21.30;86.60;;;;;;5080390;28;20071;-59
2022/06/17 00:19:49;;;;;;;7.47;3.00;;;21.20;86.80;;;;;;5070837;28;20098;-59
2022/06/17 00:22:16;;;;;;;6.45;3.03;;;21.20;86.80;;;;;;5078092;28;20123;-59
2022/06/17 00:24:43;;;;;;;7.25;3.40;;;21.20;87.00;;;;;;5083676;28;20052;-58
2022/06/17 00:27:10;;;;;;;7.82;4.05;;;21.20;86.90;;;;;;5086970;28;20102;-59
2022/06/17 00:29:37;;;;;;;7.35;3.10;;;21.20;86.80;;;;;;5080730;28;20044;-59
2022/06/17 00:32:04;;;;;;;4.13;2.70;;;21.30;86.90;;;;;;5077232;28;20159;-59
2022/06/17 00:34:31;;;;;;;6.32;3.10;;;21.30;87.10;;;;;;5084590;28;20045;-61
2022/06/17 00:36:59;;;;;;;6.65;2.60;;;21.20;87.20;;;;;;5079794;28;20150;-58
2022/06/17 00:39:35;;;;;;;10.55;2.92;;;21.20;87.30;;;;;;5079979;28;20044;-58
2022/06/17 00:42:08;;;;;;;7.88;2.75;;;21.20;88.80;;;;;;5085257;28;20485;-59
2022/06/17 00:44:51;;;;;;;10.50;2.70;;;21.10;88.50;;;;;;5073903;28;20044;-58
2022/06/17 00:47:25;;;;;;;15.95;4.20;;;21.00;89.50;;;;;;5083684;28;20040;-59
2022/06/17 00:50:01;;;;;;;7.75;2.65;;;21.00;88.50;;;;;;5072969;28;20110;-59
2022/06/17 00:52:44;;;;;;;7.90;3.50;;;20.90;88.10;;;;;;5064287;28;20056;-60
2022/06/17 00:55:15;;;;;;;7.85;2.53;;;20.90;88.70;;;;;;5074111;28;20056;-59
2022/06/17 00:57:43;;;;;;;7.97;2.72;;;20.80;88.40;;;;;;5075900;28;20044;-59
2022/06/17 01:00:10;;;;;;;5.80;2.67;;;20.80;88.00;;;;;;5072841;28;20048;-59
2022/06/17 01:02:45;;;;;;;6.35;2.40;;;20.80;87.90;;;;;;5074103;28;20094;-60
2022/06/17 01:05:12;;;;;;;7.20;2.30;;;20.80;88.20;;;;;;5067350;28;20101;-57
2022/06/17 01:07:45;;;;;;;11.30;2.60;;;20.70;88.80;;;;;;5080724;28;20287;-59
2022/06/17 01:10:13;;;;;;;4.20;2.40;;;20.60;89.30;;;;;;5073321;28;20052;-59
2022/06/17 01:13:03;;;;;;;6.65;3.72;;;20.60;88.60;;;;;;5072905;28;20376;-59
2022/06/17 01:15:31;;;;;;;4.18;2.38;;;20.60;90.00;;;;;;5074584;28;20048;-59
2022/06/17 01:17:58;;;;;;;6.22;2.25;;;20.60;88.60;;;;;;5076408;28;20048;-59
2022/06/17 01:20:26;;;;;;;4.72;2.00;;;20.70;88.30;;;;;;5075482;28;20731;-59
2022/06/17 01:22:58;;;;;;;4.20;2.25;;;20.70;88.10;;;;;;4737536;28;10000530;-59
2022/06/17 01:25:29;;;;;;;5.07;2.22;;;20.60;88.10;;;;;;5063437;28;20749;-59
2022/06/17 01:28:05;;;;;;;3.10;1.70;;;20.70;88.50;;;;;;5080992;28;20131;-59
2022/06/17 01:30:36;;;;;;;6.85;3.42;;;20.60;88.20;;;;;;5075661;28;20167;-59
2022/06/17 01:33:14;;;;;;;6.57;2.17;;;20.70;88.20;;;;;;5082714;28;20067;-59
2022/06/17 01:35:56;;;;;;;10.55;4.63;;;20.70;87.90;;;;;;5071833;28;20470;-59
2022/06/17 01:38:23;;;;;;;5.97;2.45;;;20.60;89.10;;;;;;5072364;28;20136;-59
2022/06/17 01:40:51;;;;;;;5.15;2.10;;;20.50;87.90;;;;;;5075284;28;20068;-59
2022/06/17 01:43:18;;;;;;;5.38;2.22;;;20.50;88.20;;;;;;5062827;28;20049;-62
2022/06/17 01:45:53;;;;;;;7.35;2.17;;;20.40;88.10;;;;;;5079332;28;20141;-60
2022/06/17 01:48:20;;;;;;;8.57;3.47;;;20.40;89.10;;;;;;5062039;28;20064;-59
2022/06/17 01:50:47;;;;;;;5.65;2.70;;;20.50;88.40;;;;;;5063882;28;20049;-59
2022/06/17 01:53:15;;;;;;;6.05;2.28;;;20.40;88.40;;;;;;5083912;28;20470;-59
2022/06/17 01:55:47;;;;;;;9.80;2.65;;;20.40;88.70;;;;;;5082899;28;20147;-59
2022/06/17 01:58:47;;;;;;;6.20;2.70;;;20.30;88.80;;;;;;5057908;28;20079;-59
2022/06/17 02:01:14;;;;;;;8.35;2.17;;;20.30;90.10;;;;;;5069945;28;20080;-59
2022/06/17 02:04:09;;;;;;;3.78;2.15;;;20.30;89.10;;;;;;5070652;28;20044;-59
2022/06/17 02:06:48;;;;;;;6.40;2.22;;;20.20;89.40;;;;;;5068209;28;20100;-59
2022/06/17 02:09:15;;;;;;;6.50;2.17;;;20.20;90.50;;;;;;5071817;28;20095;-59
2022/06/17 02:11:42;;;;;;;7.35;2.00;;;20.20;89.80;;;;;;5070148;28;20128;-60
2022/06/17 02:14:09;;;;;;;6.03;2.22;;;20.10;89.80;;;;;;5074127;28;20048;-60
2022/06/17 02:16:36;;;;;;;6.72;2.45;;;20.10;90.00;;;;;;5082517;28;20049;-59
2022/06/17 02:19:03;;;;;;;4.85;2.28;;;20.20;90.00;;;;;;5076091;28;20056;-59
2022/06/17 02:21:34;;;;;;;6.07;2.53;;;20.10;90.30;;;;;;5068520;28;20056;-60
2022/06/17 02:24:01;;;;;;;4.90;2.42;;;20.00;90.40;;;;;;5084529;28;20110;-60
2022/06/17 02:26:28;;;;;;;3.58;2.33;;;20.00;90.30;;;;;;5082202;28;20361;-59
2022/06/17 02:28:54;;;;;;;7.68;2.38;;;19.90;90.30;;;;;;5084622;28;20131;-59
2022/06/17 02:31:21;;;;;;;8.15;2.47;;;19.90;90.40;;;;;;5070971;28;20491;-60
2022/06/17 02:33:49;;;;;;;4.30;2.45;;;19.80;90.50;;;;;;5076316;28;20120;-58
2022/06/17 02:36:25;;;;;;;6.45;2.10;;;19.80;90.70;;;;;;5061944;28;20113;-58
2022/06/17 02:38:52;;;;;;;4.57;1.77;;;19.80;91.30;;;;;;5084958;28;20068;-61
2022/06/17 02:41:19;;;;;;;10.15;3.10;;;19.80;90.70;;;;;;5088767;28;20130;-59
2022/06/17 02:43:53;;;;;;;4.47;2.22;;;19.70;90.80;;;;;;5083080;28;20049;-59
2022/06/17 02:46:35;;;;;;;4.82;2.58;;;19.60;91.10;;;;;;5080554;28;20503;-59
2022/06/17 02:49:07;;;;;;;5.53;3.53;;;19.60;92.10;;;;;;5071033;28;20091;-59
2022/06/17 02:51:36;;;;;;;7.60;2.92;;;19.60;91.80;;;;;;5061158;28;20123;-58
2022/06/17 02:54:04;;;;;;;7.55;2.45;;;19.60;91.70;;;;;;5083175;28;20080;-58
2022/06/17 02:56:31;;;;;;;4.00;1.95;;;19.50;91.60;;;;;;5081555;28;20040;-58
2022/06/17 02:59:12;;;;;;;6.15;2.70;;;19.60;91.90;;;;;;5069784;28;20082;-58
2022/06/17 03:01:40;;;;;;;4.25;2.47;;;19.50;92.50;;;;;;5087052;28;20465;-58
2022/06/17 03:04:14;;;;;;;5.82;2.55;;;19.50;92.00;;;;;;5069202;28;20095;-58
2022/06/17 03:06:42;;;;;;;7.35;2.30;;;19.40;92.50;;;;;;5084228;28;20041;-58
2022/06/17 03:09:31;;;;;;;4.85;2.55;;;19.40;92.40;;;;;;5080799;28;20040;-59
2022/06/17 03:12:07;;;;;;;3.35;1.95;;;19.30;93.70;;;;;;5088721;28;20040;-58
2022/06/17 03:14:35;;;;;;;3.75;2.00;;;19.20;92.70;;;;;;5059304;28;20094;-58
2022/06/17 03:17:07;;;;;;;5.90;2.40;;;19.20;93.20;;;;;;5077017;28;20129;-60
2022/06/17 03:19:36;;;;;;;6.35;2.60;;;19.10;93.20;;;;;;5068089;28;20059;-59
2022/06/17 03:22:06;;;;;;;6.57;2.47;;;19.10;93.30;;;;;;5084064;28;20051;-59
2022/06/17 03:24:55;;;;;;;7.78;2.50;;;19.10;93.80;;;;;;5076728;28;20110;-59
2022/06/17 03:27:42;;;;;;;5.90;2.15;;;19.10;94.40;;;;;;5083337;28;20072;-59
2022/06/17 03:30:10;;;;;;;4.22;2.30;;;19.10;94.90;;;;;;5082756;28;20095;-59
2022/06/17 03:32:39;;;;;;;5.65;2.10;;;19.00;93.70;;;;;;5079538;28;20080;-60
2022/06/17 03:35:16;;;;;;;6.65;2.13;;;18.90;93.90;;;;;;5080953;28;20090;-60
2022/06/17 03:37:53;;;;;;;6.82;2.75;;;18.80;94.30;;;;;;5083662;28;20040;-60
2022/06/17 03:40:22;;;;;;;6.05;2.38;;;18.80;94.70;;;;;;5081757;28;20051;-60
2022/06/17 03:43:15;;;;;;;4.90;2.15;;;18.80;94.20;;;;;;5077429;28;20043;-60
2022/06/17 03:45:48;;;;;;;3.80;2.20;;;18.90;94.50;;;;;;5067796;28;20084;-60
2022/06/17 03:48:43;;;;;;;6.88;2.53;;;18.80;94.30;;;;;;5065277;28;20037;-60
2022/06/17 03:51:15;;;;;;;6.95;2.70;;;18.80;95.90;;;;;;5076181;28;20045;-59
2022/06/17 03:53:42;;;;;;;7.40;2.80;;;18.80;94.70;;;;;;5087904;28;20210;-59
2022/06/17 03:56:18;;;;;;;4.57;2.28;;;18.80;94.60;;;;;;5068470;28;20517;-60
2022/06/17 03:58:45;;;;;;;5.38;2.58;;;18.80;94.80;;;;;;5066242;28;20056;-60
2022/06/17 04:01:13;;;;;;;7.80;3.10;;;18.80;94.30;;;;;;5081577;28;20127;-59
2022/06/17 04:03:42;;;;;;;5.35;2.80;;;18.70;94.40;;;;;;5080726;28;20546;-59
2022/06/17 04:06:11;;;;;;;7.45;4.38;;;18.70;94.80;;;;;;5086264;28;20134;-59
2022/06/17 04:08:54;;;;;;;8.23;2.53;;;18.60;95.00;;;;;;5071541;28;20135;-60
2022/06/17 04:11:21;;;;;;;4.85;2.50;;;18.60;96.40;;;;;;5074764;28;20044;-59
2022/06/17 04:13:53;;;;;;;2.40;1.92;;;18.60;95.10;;;;;;5075050;28;20542;-59
2022/06/17 04:17:07;;;;;;;4.88;2.08;;;18.50;95.30;;;;;;5076080;28;20088;-59
2022/06/17 04:19:34;;;;;;;;;;;18.60;95.90;;;;;;5076836;28;20044;-60
2022/06/17 04:22:26;;;;;;;3.80;2.20;;;18.50;96.00;;;;;;5082719;28;20326;-59
2022/06/17 04:25:00;;;;;;;7.70;2.70;;;18.50;95.70;;;;;;5077577;28;20123;-59
2022/06/17 04:27:56;;;;;;;4.07;2.10;;;18.60;95.20;;;;;;5070785;28;20507;-59
2022/06/17 04:30:20;;;;;;;4.47;1.83;;;18.50;94.50;;;;;;5073037;28;20126;-59
2022/06/17 04:32:47;;;;;;;14.00;2.58;;;18.50;94.90;;;;;;5064999;28;20086;-60
2022/06/17 04:35:14;;;;;;;10.13;2.58;;;18.60;94.70;;;;;;5080767;28;20170;-59
2022/06/17 04:37:41;;;;;;;4.50;2.38;;;18.50;94.60;;;;;;5074775;28;20253;-59
2022/06/17 04:40:26;;;;;;;4.45;2.00;;;18.60;94.60;;;;;;5070476;28;20447;-60
2022/06/17 04:42:53;;;;;;;8.15;2.78;;;18.60;94.80;;;;;;5070616;28;20132;-59
2022/06/17 04:45:22;;;;;;;5.55;2.38;;;18.70;94.20;;;;;;5070433;28;20135;-58
2022/06/17 04:47:49;;;;;;;4.78;2.42;;;18.70;94.10;;;;;;5082410;28;20076;-59
2022/06/17 04:50:17;;;;;;;8.27;2.92;;;18.80;94.20;;;;;;5079463;28;20512;-58
2022/06/17 04:52:46;;;;;;;4.50;2.40;;;18.80;93.80;;;;;;5083073;28;20127;-59
2022/06/17 04:55:28;;;;;;;4.75;2.45;;;18.80;94.00;;;;;;5076707;28;20695;-59
2022/06/17 04:57:55;;;;;;;6.75;3.50;;;18.90;94.00;;;;;;5066881;28;20531;-60
2022/06/17 05:00:25;;;;;;;6.10;2.78;;;18.90;93.60;;;;;;5076347;28;20087;-59
2022/06/17 05:02:52;;;;;;;6.95;2.85;;;18.90;93.70;;;;;;5075175;28;20052;-59
2022/06/17 05:05:29;;;;;;;5.50;2.45;;;19.00;93.40;;;;;;5074419;28;20260;-59
2022/06/17 05:07:56;;;;;;;7.25;2.00;;;19.10;92.70;;;;;;5077599;28;20076;-59
2022/06/17 05:10:34;;;;;;;3.88;1.80;;;19.20;92.70;;;;;;5072813;28;20195;-58
2022/06/17 05:13:18;;;;;;;4.63;2.15;;;19.40;91.80;;;;;;5077959;28;20324;-59
2022/06/17 05:15:45;;;;;;;8.48;2.25;;;19.50;91.10;;;;;;5073879;28;20574;-59
2022/06/17 05:18:12;;;;;;;6.47;1.98;;;19.60;90.60;;;;;;5078001;28;20072;-59
2022/06/17 05:20:39;;;;;;;8.95;2.53;;;19.70;90.20;;;;;;5073774;28;20083;-58
2022/06/17 05:23:06;;;;;;;6.22;2.22;;;19.80;89.40;;;;;;5078393;28;20126;-58
2022/06/17 05:25:40;;;;;;;10.85;1.98;;;20.00;88.70;;;;;;5071214;28;20576;-58
2022/06/17 05:28:07;;;;;;;5.32;2.13;;;20.00;88.10;;;;;;5078127;28;20096;-57
2022/06/17 05:30:36;;;;;;;8.38;3.05;;;20.10;87.20;;;;;;5072205;28;20051;-58
2022/06/17 05:33:03;;;;;;;7.85;2.72;;;20.20;87.50;;;;;;5067006;28;20097;-59
2022/06/17 05:35:31;;;;;;;3.50;2.42;;;20.20;88.80;;;;;;5082782;28;20097;-59
2022/06/17 05:37:58;;;;;;;8.93;2.28;;;20.30;87.60;;;;;;5074638;28;20403;-60
2022/06/17 05:40:26;;;;;;;4.38;2.05;;;20.30;88.10;;;;;;5086011;28;20075;-59
2022/06/17 05:42:53;;;;;;;4.45;2.17;;;20.30;86.40;;;;;;5086201;28;20075;-59
2022/06/17 05:45:26;;;;;;;6.15;1.95;;;20.40;85.90;;;;;;5073255;28;20154;-58
2022/06/17 05:47:53;;;;;;;6.72;1.70;;;20.50;85.60;;;;;;5078610;28;20075;-59
2022/06/17 05:50:21;;;;;;;5.30;2.22;;;20.50;85.90;;;;;;5078418;28;20079;-59
2022/06/17 05:52:57;;;;;;;7.95;2.15;;;20.50;85.80;;;;;;5079231;28;20432;-59
2022/06/17 05:55:24;;;;;;;34.78;2.45;;;20.60;84.70;;;;;;5087113;28;20067;-59
2022/06/17 05:57:51;;;;;;;27.45;6.18;;;20.70;85.80;;;;;;5080442;28;20135;-59
2022/06/17 06:00:18;;;;;;;7.03;2.85;;;20.70;84.90;;;;;;5077650;28;20113;-59
2022/06/17 06:02:45;;;;;;;2.90;1.73;;;20.80;84.50;;;;;;5080477;28;20082;-59
2022/06/17 06:05:14;;;;;;;7.88;2.22;;;20.80;83.90;;;;;;5077404;28;20345;-59
2022/06/17 06:07:40;;;;;;;8.25;2.03;;;20.90;83.10;;;;;;5086163;28;20097;-58
2022/06/17 06:10:08;;;;;;;3.40;2.40;;;21.00;82.60;;;;;;5081273;28;20052;-59
2022/06/17 06:12:54;;;;;;;5.97;2.50;;;21.10;82.20;;;;;;5084863;28;20078;-59
2022/06/17 06:15:21;;;;;;;5.38;2.03;;;21.20;83.00;;;;;;5081545;28;20101;-59
2022/06/17 06:17:48;;;;;;;7.15;2.75;;;21.20;82.20;;;;;;5084935;28;20082;-60
2022/06/17 06:20:15;;;;;;;14.45;4.82;;;21.30;82.60;;;;;;5082164;28;20128;-59
2022/06/17 06:22:42;;;;;;;10.30;3.40;;;21.40;83.00;;;;;;5075513;28;20131;-59
2022/06/17 06:25:10;;;;;;;12.35;7.70;;;21.40;82.70;;;;;;5077655;28;20044;-59
2022/06/17 06:27:37;;;;;;;4.72;2.65;;;21.60;82.50;;;;;;5086137;28;20565;-59
2022/06/17 06:30:05;;;;;;;13.82;2.88;;;21.70;82.70;;;;;;5076523;28;20126;-62
2022/06/17 06:32:31;;;;;;;7.72;3.83;;;21.80;82.50;;;;;;5084787;28;20052;-59
2022/06/17 06:34:58;;;;;;;6.10;2.25;;;21.90;83.10;;;;;;5109611;27;20127;-59
2022/06/17 06:37:25;;;;;;;9.38;3.47;;;22.00;83.60;;;;;;5085844;28;20055;-59
2022/06/17 06:39:52;;;;;;;9.70;2.53;;;22.10;83.50;;;;;;5078934;28;20082;-60
2022/06/17 06:42:19;;;;;;;5.05;3.13;;;22.20;83.00;;;;;;5078446;28;20550;-58
2022/06/17 06:44:46;;;;;;;12.50;3.95;;;22.30;83.50;;;;;;5086951;28;20113;-60
2022/06/17 06:47:13;;;;;;;6.75;2.75;;;22.40;83.80;;;;;;5117590;27;20053;-60
2022/06/17 06:49:40;;;;;;;5.18;2.90;;;22.50;83.20;;;;;;5090358;28;20380;-60
2022/06/17 06:52:07;;;;;;;6.60;2.78;;;22.60;83.50;;;;;;5085056;28;20095;-62
2022/06/17 06:54:34;;;;;;;8.95;2.70;;;22.60;84.00;;;;;;5090611;28;20044;-60
2022/06/17 06:57:00;;;;;;;3.95;2.85;;;22.70;83.70;;;;;;5075815;28;20072;-59
2022/06/17 06:59:48;;;;;;;9.23;3.95;;;22.70;83.70;;;;;;5086784;28;20040;-59
2022/06/17 07:02:14;;;;;;;8.80;3.40;;;22.70;83.50;;;;;;5076090;28;20132;-60
2022/06/17 07:04:42;;;;;;;7.65;2.83;;;22.60;83.40;;;;;;5086398;28;20509;-60
2022/06/17 07:07:10;;;;;;;6.93;2.80;;;22.60;83.40;;;;;;5077939;28;20045;-60
2022/06/17 07:09:37;;;;;;;7.22;2.70;;;22.70;83.80;;;;;;5085726;28;20147;-63
2022/06/17 07:12:05;;;;;;;14.63;3.72;;;22.70;84.10;;;;;;5079648;28;20075;-59
2022/06/17 07:14:36;;;;;;;7.70;3.45;;;22.60;84.50;;;;;;4901011;27;10000485;-60
2022/06/17 07:17:03;;;;;;;12.23;3.15;;;22.70;84.40;;;;;;5081852;28;20322;-60
2022/06/17 07:19:30;;;;;;;11.05;2.83;;;22.70;84.60;;;;;;5073377;28;20044;-59
2022/06/17 07:21:58;;;;;;;7.00;3.00;;;22.70;84.60;;;;;;5078790;28;20490;-61
2022/06/17 07:24:25;;;;;;;10.98;4.50;;;22.70;84.60;;;;;;5070405;28;20069;-60
2022/06/17 07:26:52;;;;;;;9.10;2.90;;;22.80;84.70;;;;;;5078838;28;20470;-60
2022/06/17 07:29:19;;;;;;;10.02;3.03;;;22.80;85.50;;;;;;5071237;28;20052;-60
2022/06/17 07:31:46;;;;;;;6.43;2.80;;;22.80;85.40;;;;;;5079313;28;20125;-59
2022/06/17 07:34:12;;;;;;;7.15;3.25;;;22.90;85.50;;;;;;5071072;28;20131;-59
2022/06/17 07:42:10;;;;;;;10.70;2.90;;;23.10;86.40;;;;;;5070636;28;20044;-59
2022/06/17 07:44:38;;;;;;;8.77;3.58;;;23.00;86.50;;;;;;5069539;28;20557;-59
2022/06/17 07:47:05;;;;;;;14.85;3.40;;;23.00;86.40;;;;;;5077351;28;20537;-60
2022/06/17 07:49:32;;;;;;;6.57;3.00;;;23.00;86.80;;;;;;5081783;28;20063;-59
2022/06/17 07:52:06;;;;;;;11.32;3.22;;;23.10;86.80;;;;;;5058613;28;20059;-59
2022/06/17 07:54:33;;;;;;;11.27;3.10;;;23.10;87.10;;;;;;5071732;28;20518;-59
2022/06/17 07:56:59;;;;;;;8.10;3.10;;;23.20;86.90;;;;;;5074576;28;20051;-57
2022/06/17 07:59:26;;;;;;;6.50;3.35;;;23.20;87.40;;;;;;5070768;28;20048;-60
2022/06/17 08:01:53;;;;;;;6.63;2.95;;;23.20;87.60;;;;;;5074611;28;20087;-60
2022/06/17 08:04:20;;;;;;;7.10;3.17;;;23.30;87.10;;;;;;5070893;28;20436;-59
2022/06/17 08:06:49;;;;;;;12.38;3.00;;;23.30;87.30;;;;;;5081316;28;20054;-60
2022/06/17 08:09:20;;;;;;;5.90;2.95;;;23.30;87.10;;;;;;5071327;28;20049;-60
2022/06/17 08:11:48;;;;;;;6.38;2.63;;;23.40;87.30;;;;;;5071217;28;20538;-60
2022/06/17 08:14:15;;;;;;;6.03;3.20;;;23.50;86.50;;;;;;5071118;28;20105;-61
2022/06/17 08:16:42;;;;;;;6.28;1.90;;;23.50;86.00;;;;;;5071747;28;20105;-61
2022/06/17 08:19:09;;;;;;;6.60;2.55;;;23.70;84.30;;;;;;5075225;28;20102;-60
2022/06/17 08:21:36;;;;;;;3.55;1.88;;;23.80;80.80;;;;;;5069534;28;20048;-59
2022/06/17 08:24:23;;;;;;;5.35;2.35;;;23.90;82.10;;;;;;5070172;28;20140;-59
2022/06/17 08:26:50;;;;;;;8.85;2.17;;;24.00;81.10;;;;;;5070396;28;20110;-59
2022/06/17 08:29:17;;;;;;;3.53;2.28;;;24.20;80.20;;;;;;5078235;28;20127;-59
2022/06/17 08:34:50;;;;;;;4.50;1.80;;;24.50;78.80;;;;;;5074987;28;20450;-59
2022/06/17 08:37:16;;;;;;;4.30;2.13;;;24.60;77.60;;;;;;5070984;28;20086;-59
2022/06/17 08:39:44;;;;;;;2.88;1.85;;;24.80;77.00;;;;;;5079348;28;20131;-59
2022/06/17 08:42:18;;;;;;;11.07;2.58;;;24.90;76.50;;;;;;5076261;28;20080;-59
2022/06/17 08:44:50;;;;;;;8.88;2.08;;;25.00;73.80;;;;;;5072307;28;20048;-60
2022/06/17 08:47:35;;;;;;;5.20;1.80;;;25.10;74.70;;;;;;5078779;28;20066;-59
2022/06/17 08:50:35;;;;;;;7.57;2.50;;;25.20;71.90;;;;;;5064001;28;20075;-59
2022/06/17 08:53:12;;;;;;;6.32;2.17;;;25.30;73.00;;;;;;5071103;28;20522;-59
2022/06/17 08:55:50;;;;;;;5.95;1.60;;;25.50;72.30;;;;;;5072314;28;20487;-59
2022/06/17 08:58:21;;;;;;;7.40;2.35;;;25.60;72.10;;;;;;5072195;28;20111;-59
2022/06/17 09:00:53;;;;;;;7.68;2.83;;;25.70;71.60;;;;;;5073612;28;20163;-58
2022/06/17 09:03:29;;;;;;;6.13;2.30;;;25.80;72.10;;;;;;5070775;28;20048;-59
2022/06/17 09:06:12;;;;;;;4.13;2.25;;;25.90;71.90;;;;;;5072894;28;20055;-59
2022/06/17 09:09:17;;;;;;;8.90;2.17;;;25.90;71.20;;;;;;5072250;28;20035;-60
2022/06/17 09:11:56;;;;;;;5.05;2.10;;;26.00;69.80;;;;;;5016083;28;20049;-60
2022/06/17 09:14:57;;;;;;;3.08;1.80;;;26.00;69.90;;;;;;5072225;28;20429;-59
2022/06/17 09:17:54;;;;;;;6.70;3.30;;;26.20;71.30;;;;;;5079629;28;20040;-59
2022/06/17 09:20:23;;;;;;;5.38;2.30;;;26.20;71.30;;;;;;5061625;28;20050;-59
2022/06/17 09:22:55;;;;;;;8.00;2.38;;;26.30;71.10;;;;;;5067901;28;20045;-58
2022/06/17 09:25:24;;;;;;;6.93;1.83;;;26.30;70.70;;;;;;5075307;28;20445;-59
2022/06/17 09:27:51;;;;;;;7.38;2.90;;;26.40;71.70;;;;;;5067289;28;20086;-59
2022/06/17 09:30:23;;;;;;;6.20;2.30;;;26.40;71.90;;;;;;5072740;28;20109;-59
2022/06/17 09:32:54;;;;;;;3.95;2.20;;;26.40;71.70;;;;;;5069072;28;20549;-59
2022/06/17 09:35:36;;;;;;;12.40;2.95;;;26.50;71.90;;;;;;5073198;28;20072;-60
2022/06/17 09:38:37;;;;;;;11.45;2.40;;;26.50;72.30;;;;;;5066199;28;20583;-60
2022/06/17 09:41:28;;;;;;;5.88;1.98;;;26.50;73.80;;;;;;5035291;28;20131;-60
2022/06/17 09:44:11;;;;;;;6.50;2.38;;;26.50;72.50;;;;;;5068541;28;20102;-60
2022/06/17 09:46:41;;;;;;;10.07;2.58;;;26.70;73.50;;;;;;5076451;28;20052;-60
2022/06/17 09:49:14;;;;;;;7.53;2.50;;;26.80;73.30;;;;;;5068395;28;20040;-60
2022/06/17 09:51:43;;;;;;;6.15;2.55;;;26.80;72.20;;;;;;5076126;28;20056;-60
2022/06/17 09:54:22;;;;;;;8.02;2.08;;;26.80;72.10;;;;;;5067868;28;20044;-59
2022/06/17 09:56:58;;;;;;;10.02;2.45;;;26.90;72.20;;;;;;5076374;28;20242;-60
2022/06/17 09:59:43;;;;;;;9.48;2.15;;;27.00;71.80;;;;;;5055668;28;20111;-59
2022/06/17 10:02:27;;;;;;;8.80;2.67;;;27.00;72.10;;;;;;5076988;28;20052;-60
2022/06/17 10:04:54;;;;;;;5.47;2.03;;;27.10;72.20;;;;;;5078858;28;20306;-60
2022/06/17 10:07:49;;;;;;;7.75;2.35;;;27.30;72.70;;;;;;5065727;28;20044;-60
2022/06/17 10:10:28;;;;;;;6.25;2.22;;;27.50;71.80;;;;;;5071904;28;20422;-60
2022/06/17 10:13:12;;;;;;;3.55;1.73;;;27.60;70.20;;;;;;5067053;28;20298;-60
2022/06/17 10:18:31;;;;;;;8.75;2.10;;;28.00;70.30;;;;;;5077682;28;20086;-60
2022/06/17 10:18:48;;;;;;;15.07;2.65;;;28.30;70.00;;;;;;5080245;28;20136;-60
2022/06/17 10:21:36;;;;;;;5.35;2.30;;;28.60;66.30;;;;;;5079837;28;20123;-59
2022/06/17 10:24:09;;;;;;;6.20;1.73;;;28.80;63.70;;;;;;5070436;28;20048;-60
2022/06/17 10:26:41;;;;;;;13.77;2.10;;;28.90;64.90;;;;;;5073322;28;20055;-59
2022/06/17 10:29:26;;;;;;;4.05;1.38;;;29.00;62.50;;;;;;5073600;28;20097;-59
2022/06/17 10:31:53;;;;;;;8.93;2.38;;;29.00;62.10;;;;;;5075662;28;20130;-59
2022/06/17 10:34:36;;;;;;;3.13;1.45;;;29.20;62.90;;;;;;5079950;28;20079;-59
2022/06/17 10:37:03;;;;;;;8.55;2.50;;;29.30;61.90;;;;;;5086907;28;20040;-59
2022/06/17 10:39:32;;;;;;;3.33;1.85;;;29.30;62.60;;;;;;5070193;28;20091;-59
2022/06/17 10:41:59;;;;;;;9.55;2.30;;;29.40;63.60;;;;;;5088344;28;20090;-58
2022/06/17 10:44:27;;;;;;;6.60;2.55;;;29.50;62.70;;;;;;5078239;28;20151;-58
2022/06/17 10:47:00;;;;;;;6.63;2.38;;;29.70;62.10;;;;;;5080709;28;20075;-58
2022/06/17 10:49:38;;;;;;;4.55;2.00;;;29.60;60.40;;;;;;5080614;28;20131;-59
2022/06/17 10:52:22;;;;;;;8.93;2.42;;;29.90;62.60;;;;;;5055933;28;20051;-60
2022/06/17 10:54:49;;;;;;;5.00;1.83;;;30.20;60.90;;;;;;5084267;28;20056;-60
2022/06/17 10:57:28;;;;;;;6.38;2.03;;;30.20;61.30;;;;;;5085623;28;20118;-60
2022/06/17 10:59:55;;;;;;;8.02;1.98;;;30.00;59.30;;;;;;5079342;28;20076;-61
2022/06/17 11:02:23;;;;;;;8.63;2.70;;;29.80;60.60;;;;;;5078980;28;20121;-60
2022/06/17 11:04:52;;;;;;;8.02;3.35;;;29.70;61.00;;;;;;5076598;28;20056;-60
2022/06/17 11:07:40;;;;;;;4.55;2.30;;;29.50;60.20;;;;;;5081361;28;20052;-60
2022/06/17 11:10:23;;;;;;;5.22;1.98;;;29.40;59.60;;;;;;5077765;28;20076;-60
2022/06/17 11:13:05;;;;;;;6.22;1.67;;;29.20;59.70;;;;;;5078706;28;20048;-59
2022/06/17 11:15:44;;;;;;;3.72;1.83;;;29.10;59.60;;;;;;5080227;28;20114;-60
2022/06/17 11:18:31;;;;;;;3.92;1.80;;;29.10;59.70;;;;;;5083095;28;20127;-60
2022/06/17 11:21:02;;;;;;;6.35;1.65;;;29.10;60.10;;;;;;5067710;28;20075;-59
2022/06/17 11:23:38;;;;;;;5.57;1.75;;;29.20;60.70;;;;;;5078555;28;20080;-60
2022/06/17 11:26:12;;;;;;;5.38;1.70;;;29.20;58.80;;;;;;5080466;28;20185;-60
2022/06/17 11:28:45;;;;;;;6.45;1.73;;;29.10;59.50;;;;;;5077548;28;20060;-59
2022/06/17 11:31:34;;;;;;;6.57;1.73;;;29.20;60.00;;;;;;5078261;28;20135;-59
2022/06/17 11:34:25;;;;;;;2.70;1.38;;;29.30;59.80;;;;;;5084769;28;20425;-60
2022/06/17 11:37:10;;;;;;;9.23;1.73;;;29.40;59.80;;;;;;5106233;27;20050;-60
2022/06/17 11:39:37;;;;;;;4.60;1.95;;;29.40;58.70;;;;;;5075833;28;20086;-60
2022/06/17 11:42:19;;;;;;;7.50;1.92;;;29.40;58.90;;;;;;5080871;28;20044;-59
2022/06/17 11:45:05;;;;;;;5.20;1.80;;;29.50;57.50;;;;;;5075093;28;20503;-59
2022/06/17 11:47:32;;;;;;;9.68;2.05;;;29.50;57.40;;;;;;5080204;28;20144;-61
2022/06/17 11:50:01;;;;;;;5.28;2.08;;;29.40;58.10;;;;;;5066879;28;20150;-60
2022/06/17 11:52:33;;;;;;;5.68;1.60;;;29.40;58.50;;;;;;5071933;28;20048;-60
2022/06/17 11:55:00;;;;;;;8.13;2.47;;;29.40;58.60;;;;;;5075890;28;20081;-60
2022/06/17 11:57:30;;;;;;;9.07;1.40;;;29.50;57.70;;;;;;5072159;28;20311;-60
2022/06/17 11:59:58;;;;;;;9.52;2.30;;;29.50;58.00;;;;;;5068833;28;20044;-60
2022/06/17 12:02:25;;;;;;;6.53;2.40;;;29.50;58.40;;;;;;5073259;28;20140;-60
2022/06/17 12:05:09;;;;;;;7.50;1.77;;;29.60;59.00;;;;;;5075251;28;20063;-60
2022/06/17 12:07:46;;;;;;;6.93;1.88;;;29.70;58.30;;;;;;5072035;28;20044;-60
2022/06/17 12:10:22;;;;;;;4.68;1.92;;;29.70;58.90;;;;;;5074709;28;20130;-60
2022/06/17 12:12:50;;;;;;;8.07;2.28;;;29.80;58.60;;;;;;5082095;28;20124;-59
2022/06/17 12:15:36;;;;;;;7.93;2.13;;;29.90;59.10;;;;;;5066188;28;20127;-59
2022/06/17 12:18:03;;;;;;;7.18;2.10;;;29.90;59.20;;;;;;5071110;28;20049;-60
2022/06/17 12:20:42;;;;;;;5.88;1.80;;;30.00;59.00;;;;;;5073560;28;20109;-60
2022/06/17 12:23:32;;;;;;;4.57;1.98;;;30.10;58.90;;;;;;5081593;28;20135;-60
2022/06/17 12:26:00;;;;;;;10.00;1.90;;;29.80;58.50;;;;;;5075813;28;20562;-60
2022/06/17 12:28:33;;;;;;;5.30;2.15;;;29.80;59.30;;;;;;5066357;28;20589;-59
2022/06/17 12:31:24;;;;;;;;;;;29.80;59.10;;;;;;5085131;28;20048;-60
2022/06/17 12:33:56;;;;;;;8.45;1.88;;;29.90;60.30;;;;;;5071232;28;20434;-60
2022/06/17 12:36:30;;;;;;;4.80;1.40;;;30.10;58.20;;;;;;5071580;28;20059;-59
2022/06/17 12:39:21;;;;;;;6.88;2.45;;;30.10;56.20;;;;;;5097245;28;20040;-59
2022/06/17 12:42:13;;;;;;;8.13;1.60;;;30.20;56.10;;;;;;5067717;28;20517;-60
2022/06/17 12:44:44;;;;;;;6.53;2.33;;;30.30;55.00;;;;;;5070911;28;20364;-60
2022/06/17 12:47:23;;;;;;;8.35;2.40;;;30.30;55.70;;;;;;5071435;28;20133;-60
2022/06/17 12:53:15;;;;;;;5.95;1.63;;;30.40;55.30;;;;;;5072420;28;20131;-60
2022/06/17 12:56:14;;;;;;;8.45;1.98;;;30.50;55.20;;;;;;5079200;28;20055;-60
2022/06/17 12:59:14;;;;;;;9.60;2.20;;;30.60;54.90;;;;;;5068626;28;20091;-60
2022/06/17 13:01:42;;;;;;;5.90;2.30;;;30.70;54.50;;;;;;5082229;28;20110;-59
2022/06/17 13:04:25;;;;;;;5.82;2.38;;;30.90;55.20;;;;;;5070774;28;20056;-60
2022/06/17 13:07:16;;;;;;;8.63;2.30;;;30.90;54.60;;;;;;5073599;28;20131;-60
2022/06/17 13:09:58;;;;;;;11.18;2.10;;;31.00;53.80;;;;;;5080010;28;20051;-58
2022/06/17 13:12:26;;;;;;;7.70;3.15;;;31.10;55.20;;;;;;5072489;28;20048;-59
2022/06/17 13:15:02;;;;;;;5.18;1.67;;;31.10;55.90;;;;;;5081129;28;20051;-59
2022/06/17 13:17:40;;;;;;;7.88;1.63;;;31.20;55.10;;;;;;5072719;28;20517;-58
2022/06/17 13:20:19;;;;;;;13.05;2.33;;;31.20;54.30;;;;;;5080215;28;20075;-59
2022/06/17 13:23:00;;;;;;;4.50;1.70;;;31.20;55.30;;;;;;5064381;28;20053;-59
2022/06/17 13:25:38;;;;;;;4.22;2.20;;;31.20;54.40;;;;;;5054520;28;20055;-60
2022/06/17 13:28:36;;;;;;;5.28;1.83;;;31.30;56.30;;;;;;5072813;28;20121;-60
2022/06/17 13:31:09;;;;;;;6.85;1.80;;;31.30;54.70;;;;;;5068733;28;20097;-60